Time;durP1;ratioP1;P1;durP2;ratioP2;P2;SDS_P1;SDS_P2;PMS_P1;PMS_P2;Temp;Humidity;BMP_temperature;BMP_pressure;BME280_temperature;BME280_humidity;BME280_pressure;Samples;Min_cycle;Max_cycle;Signal;HPM_P1;HPM_P2
2022/02/15 00:01:32;;;;;;;4.38;1.30;;;10.70;72.20;;;;;;5086928;28;20403;-72
2022/02/15 00:03:58;;;;;;;5.18;1.48;;;10.70;72.00;;;;;;5098459;28;20396;-71
2022/02/15 00:06:24;;;;;;;6.55;1.60;;;10.60;72.30;;;;;;5093257;28;20575;-71
2022/02/15 00:08:50;;;;;;;8.68;1.30;;;10.60;72.50;;;;;;5093799;28;20130;-71
2022/02/15 00:11:15;;;;;;;6.55;1.50;;;10.70;72.40;;;;;;5091310;28;20034;-71
2022/02/15 00:13:41;;;;;;;4.55;1.20;;;10.60;72.50;;;;;;5089320;28;20059;-71
2022/02/15 00:16:06;;;;;;;4.30;1.08;;;10.70;73.10;;;;;;5100509;28;20435;-71
2022/02/15 00:18:32;;;;;;;2.58;1.10;;;10.70;73.00;;;;;;5094791;28;20028;-71
2022/02/15 00:20:58;;;;;;;5.07;1.45;;;10.70;73.20;;;;;;5093266;28;20027;-71
2022/02/15 00:23:24;;;;;;;5.28;1.45;;;10.80;72.50;;;;;;5075434;28;20412;-71
2022/02/15 00:25:49;;;;;;;4.85;1.10;;;10.70;72.30;;;;;;5096349;28;20099;-71
2022/02/15 00:28:15;;;;;;;4.32;1.38;;;10.70;73.00;;;;;;5097158;28;20118;-71
2022/02/15 00:30:40;;;;;;;5.90;1.35;;;10.70;72.80;;;;;;5096430;28;20057;-71
2022/02/15 00:33:06;;;;;;;6.18;1.15;;;10.70;72.50;;;;;;5097518;28;20416;-71
2022/02/15 00:35:32;;;;;;;6.10;1.60;;;10.80;73.00;;;;;;5090193;28;20031;-71
2022/02/15 00:37:57;;;;;;;4.30;1.15;;;10.80;73.00;;;;;;5092555;28;20354;-71
2022/02/15 00:40:23;;;;;;;4.72;0.98;;;10.90;72.90;;;;;;5095287;28;20500;-71
2022/02/15 00:42:49;;;;;;;4.45;1.10;;;10.90;72.70;;;;;;5093049;28;20023;-71
2022/02/15 00:45:15;;;;;;;6.95;1.58;;;10.80;72.40;;;;;;5094506;28;20039;-71
2022/02/15 00:47:41;;;;;;;5.88;1.20;;;10.80;72.10;;;;;;5089848;28;20036;-71
2022/02/15 00:50:07;;;;;;;7.47;1.52;;;10.80;72.30;;;;;;5091841;28;20485;-70
2022/02/15 00:52:33;;;;;;;5.00;1.13;;;10.80;72.50;;;;;;5101993;28;20508;-71
2022/02/15 00:54:59;;;;;;;4.18;1.10;;;10.80;72.10;;;;;;5093365;28;20045;-71
2022/02/15 00:57:25;;;;;;;5.13;1.35;;;10.80;71.90;;;;;;5094154;28;20040;-71
2022/02/15 00:59:51;;;;;;;4.55;1.52;;;10.70;71.90;;;;;;5092162;28;20081;-71
2022/02/15 01:02:17;;;;;;;6.68;1.20;;;10.60;71.20;;;;;;5090465;28;20073;-71
2022/02/15 01:04:43;;;;;;;2.50;0.88;;;10.50;72.00;;;;;;5110234;28;20070;-71
2022/02/15 01:07:09;;;;;;;4.40;1.08;;;10.50;72.90;;;;;;5094216;28;20047;-70
2022/02/15 01:09:35;;;;;;;7.20;1.10;;;10.60;72.50;;;;;;5094248;28;20493;-71
2022/02/15 01:12:01;;;;;;;6.30;1.10;;;10.50;72.20;;;;;;5094290;28;20023;-71
2022/02/15 01:14:27;;;;;;;4.13;1.05;;;10.40;71.70;;;;;;5089619;28;20040;-71
2022/02/15 01:16:52;;;;;;;3.45;1.13;;;10.40;72.30;;;;;;5095667;28;20081;-71
2022/02/15 01:19:18;;;;;;;5.50;1.13;;;10.40;72.40;;;;;;5089209;28;20355;-71
2022/02/15 01:21:43;;;;;;;5.70;1.30;;;10.50;72.20;;;;;;5094031;28;20454;-71
2022/02/15 01:24:09;;;;;;;4.93;1.52;;;10.40;72.20;;;;;;5085659;28;20034;-71
2022/02/15 01:26:35;;;;;;;7.10;1.30;;;10.40;72.00;;;;;;5089575;28;20024;-71
2022/02/15 01:29:01;;;;;;;4.47;1.23;;;10.30;71.80;;;;;;5107374;28;20042;-71
2022/02/15 01:31:26;;;;;;;3.90;0.93;;;10.30;73.20;;;;;;5093137;28;20035;-71
2022/02/15 01:33:52;;;;;;;5.93;1.00;;;10.30;71.90;;;;;;5093967;28;20538;-71
2022/02/15 01:36:18;;;;;;;4.10;1.23;;;10.30;72.30;;;;;;5089367;28;20017;-71
2022/02/15 01:38:43;;;;;;;4.57;1.08;;;10.30;72.30;;;;;;5092489;28;20112;-71
2022/02/15 01:41:09;;;;;;;4.97;1.30;;;10.30;72.20;;;;;;5091185;28;20024;-71
2022/02/15 01:43:42;;;;;;;3.35;0.90;;;10.30;72.60;;;;;;5105142;28;20034;-71
2022/02/15 01:46:10;;;;;;;4.82;0.93;;;10.30;72.40;;;;;;5093926;28;20036;-70
2022/02/15 01:48:36;;;;;;;7.90;1.20;;;10.30;72.50;;;;;;5095183;28;20036;-70
2022/02/15 01:51:05;;;;;;;5.50;0.95;;;10.30;72.20;;;;;;5101928;28;20020;-71
2022/02/15 01:53:31;;;;;;;4.13;1.02;;;10.30;72.30;;;;;;5093481;28;20424;-71
2022/02/15 01:55:59;;;;;;;4.97;0.93;;;10.30;72.40;;;;;;5093149;28;20404;-71
2022/02/15 01:58:24;;;;;;;5.97;1.13;;;10.30;72.40;;;;;;5094211;28;20028;-71
2022/02/15 02:00:51;;;;;;;5.10;1.10;;;10.30;72.40;;;;;;5093150;28;20499;-71
2022/02/15 02:03:17;;;;;;;3.47;0.98;;;10.30;72.70;;;;;;5095176;28;20035;-71
2022/02/15 02:05:49;;;;;;;5.13;0.95;;;10.30;72.10;;;;;;5094352;28;20035;-71
2022/02/15 02:08:19;;;;;;;4.47;1.10;;;10.30;72.60;;;;;;5090614;28;20131;-71
2022/02/15 02:10:46;;;;;;;3.90;1.10;;;10.30;72.10;;;;;;5109156;28;20054;-71
2022/02/15 02:13:11;;;;;;;5.93;1.30;;;10.30;71.90;;;;;;5104310;28;20051;-71
2022/02/15 02:15:37;;;;;;;5.00;1.20;;;10.30;72.70;;;;;;5097347;28;20067;-71
2022/02/15 02:18:04;;;;;;;4.03;1.10;;;10.30;72.10;;;;;;5095614;28;20035;-71
2022/02/15 02:20:29;;;;;;;3.58;1.02;;;10.30;72.50;;;;;;5083120;28;20123;-70
2022/02/15 02:22:55;;;;;;;3.97;1.08;;;10.20;71.90;;;;;;5098266;28;20099;-71
2022/02/15 02:25:22;;;;;;;4.13;1.15;;;10.20;71.90;;;;;;5097775;28;20017;-71
2022/02/15 02:27:48;;;;;;;5.80;1.15;;;10.10;73.30;;;;;;5096663;28;20032;-71
2022/02/15 02:30:14;;;;;;;5.18;1.20;;;10.10;71.90;;;;;;5094738;28;20024;-71
2022/02/15 02:32:40;;;;;;;5.97;1.05;;;10.10;71.90;;;;;;5096672;28;20047;-71
2022/02/15 02:35:07;;;;;;;5.80;1.00;;;10.00;71.90;;;;;;5078287;28;20492;-71
2022/02/15 02:37:34;;;;;;;2.63;0.80;;;10.00;72.50;;;;;;5100490;28;20472;-71
2022/02/15 02:40:01;;;;;;;4.82;1.05;;;10.10;72.50;;;;;;5093835;28;20050;-71
2022/02/15 02:42:28;;;;;;;7.82;1.10;;;10.10;72.20;;;;;;5092008;28;20031;-71
2022/02/15 02:44:59;;;;;;;9.40;1.20;;;10.00;71.60;;;;;;5096094;28;20039;-71
2022/02/15 02:47:25;;;;;;;5.70;1.48;;;10.00;73.00;;;;;;5075940;28;20056;-71
2022/02/15 02:49:52;;;;;;;5.18;1.20;;;9.90;72.00;;;;;;5098582;28;20467;-71
2022/02/15 02:52:19;;;;;;;4.65;1.23;;;9.90;72.10;;;;;;5098365;28;20485;-71
2022/02/15 02:54:44;;;;;;;4.95;1.17;;;9.90;72.10;;;;;;5091430;28;20024;-71
2022/02/15 02:57:12;;;;;;;5.65;1.20;;;9.80;71.80;;;;;;5094066;28;20028;-71
2022/02/15 02:59:40;;;;;;;8.98;1.30;;;9.80;72.40;;;;;;5105784;28;20066;-71
2022/02/15 03:02:06;;;;;;;6.13;1.35;;;9.80;72.00;;;;;;5099401;28;20103;-71
2022/02/15 03:04:32;;;;;;;5.65;1.30;;;9.80;72.60;;;;;;5103412;28;20114;-70
2022/02/15 03:06:57;;;;;;;5.00;1.02;;;9.80;72.50;;;;;;5077546;28;20118;-71
2022/02/15 03:09:23;;;;;;;3.97;0.90;;;9.80;72.40;;;;;;5095330;28;20035;-71
2022/02/15 03:11:50;;;;;;;6.15;1.35;;;9.80;72.50;;;;;;5094882;28;20478;-70
2022/02/15 03:14:16;;;;;;;3.45;0.88;;;9.90;73.00;;;;;;5092045;28;20127;-70
2022/02/15 03:16:42;;;;;;;6.00;1.10;;;10.00;73.10;;;;;;5095183;28;20125;-71
2022/02/15 03:19:07;;;;;;;3.55;0.82;;;10.10;72.40;;;;;;5078316;28;20040;-71
2022/02/15 03:21:33;;;;;;;2.88;0.90;;;10.10;72.30;;;;;;5095486;28;20032;-71
2022/02/15 03:23:59;;;;;;;4.20;1.00;;;10.00;71.90;;;;;;5096097;28;20470;-70
2022/02/15 03:26:24;;;;;;;5.85;1.25;;;10.00;72.60;;;;;;5091116;28;20029;-70
2022/02/15 03:28:50;;;;;;;4.40;1.13;;;10.10;72.40;;;;;;5097889;28;20032;-70
2022/02/15 03:31:16;;;;;;;5.40;1.02;;;10.00;71.60;;;;;;5100454;28;20016;-70
2022/02/15 03:33:42;;;;;;;5.10;1.00;;;10.00;72.00;;;;;;5099498;28;20059;-70
2022/02/15 03:36:08;;;;;;;5.32;1.10;;;10.00;72.00;;;;;;5094288;28;20039;-70
2022/02/15 03:38:33;;;;;;;5.72;1.05;;;9.90;71.50;;;;;;5094936;28;20503;-70
2022/02/15 03:43:43;;;;;;;4.60;1.13;;;10.00;72.70;;;;;;5096940;28;20093;-70
2022/02/15 03:46:09;;;;;;;3.17;0.93;;;10.00;72.00;;;;;;5094894;28;20427;-71
2022/02/15 03:48:34;;;;;;;4.55;1.23;;;10.00;72.00;;;;;;5095141;28;20085;-70
2022/02/15 03:51:00;;;;;;;7.28;1.33;;;10.00;72.10;;;;;;5091878;28;20035;-71
2022/02/15 03:53:26;;;;;;;4.00;1.10;;;9.90;71.40;;;;;;5106742;28;20516;-71
2022/02/15 03:55:52;;;;;;;4.97;1.10;;;9.90;71.40;;;;;;5097058;28;20380;-71
2022/02/15 03:58:17;;;;;;;3.30;0.90;;;9.80;71.50;;;;;;5077225;28;20031;-71
2022/02/15 04:00:43;;;;;;;4.07;0.93;;;9.80;71.80;;;;;;5094778;28;20408;-70
2022/02/15 04:03:09;;;;;;;6.43;1.33;;;9.80;71.90;;;;;;5086568;28;20023;-70
2022/02/15 04:05:34;;;;;;;3.40;1.13;;;9.80;71.80;;;;;;5091834;28;20039;-71
2022/02/15 04:08:00;;;;;;;6.38;1.25;;;9.80;72.40;;;;;;5108450;28;20028;-71
2022/02/15 04:10:26;;;;;;;4.55;0.77;;;9.90;72.30;;;;;;5095151;28;20066;-71
2022/02/15 04:12:52;;;;;;;6.30;1.15;;;9.90;72.10;;;;;;5094671;28;20115;-71
2022/02/15 04:15:19;;;;;;;5.18;1.10;;;9.90;71.80;;;;;;5092477;28;20134;-71
2022/02/15 04:17:45;;;;;;;6.53;1.30;;;9.90;71.90;;;;;;5093875;28;20034;-71
2022/02/15 04:20:12;;;;;;;7.93;1.30;;;9.80;71.60;;;;;;5082293;28;20024;-71
2022/02/15 04:22:39;;;;;;;3.17;1.00;;;9.80;72.20;;;;;;5096625;28;20024;-70
2022/02/15 04:25:06;;;;;;;4.93;0.98;;;9.70;72.20;;;;;;5076954;28;20027;-71
2022/02/15 04:27:31;;;;;;;3.60;0.90;;;9.80;72.10;;;;;;5093818;28;20400;-71
2022/02/15 04:29:57;;;;;;;3.47;0.88;;;9.80;72.30;;;;;;5079189;28;20031;-71
2022/02/15 04:32:23;;;;;;;5.88;1.15;;;9.80;72.40;;;;;;5074979;28;20079;-70
2022/02/15 04:34:49;;;;;;;6.32;1.00;;;9.80;71.80;;;;;;5111593;28;20023;-70
2022/02/15 04:37:15;;;;;;;6.75;0.70;;;9.80;72.00;;;;;;5078142;28;20116;-71
2022/02/15 04:39:42;;;;;;;5.45;1.10;;;9.80;72.20;;;;;;5095061;28;20110;-70
2022/02/15 04:42:07;;;;;;;5.82;0.98;;;9.70;72.20;;;;;;5094161;28;20125;-71
2022/02/15 04:44:33;;;;;;;6.60;1.30;;;9.60;71.60;;;;;;5079447;28;20499;-71
2022/02/15 04:46:59;;;;;;;6.03;0.90;;;9.50;72.20;;;;;;5094778;28;20090;-70
2022/02/15 04:49:25;;;;;;;3.05;1.00;;;9.60;72.90;;;;;;5095036;28;20028;-70
2022/02/15 04:51:51;;;;;;;4.95;0.95;;;9.60;72.50;;;;;;5085350;28;20032;-70
2022/02/15 04:54:17;;;;;;;4.95;1.10;;;9.60;72.40;;;;;;5101645;28;20065;-70
2022/02/15 04:56:43;;;;;;;3.80;0.95;;;9.60;72.50;;;;;;5091836;28;20463;-70
2022/02/15 04:59:09;;;;;;;3.45;0.73;;;9.60;72.70;;;;;;5091888;28;20435;-70
2022/02/15 05:01:35;;;;;;;6.18;1.38;;;9.70;73.50;;;;;;5105263;28;20020;-70
2022/02/15 05:04:00;;;;;;;4.05;1.10;;;9.70;72.80;;;;;;5079928;28;20024;-70
2022/02/15 05:06:26;;;;;;;3.88;1.20;;;9.70;73.10;;;;;;5093392;28;20035;-70
2022/02/15 05:08:52;;;;;;;3.95;1.10;;;9.80;72.70;;;;;;5103331;28;20039;-69
2022/02/15 05:11:18;;;;;;;5.70;1.10;;;9.70;72.60;;;;;;5089465;28;20063;-72
2022/02/15 05:13:44;;;;;;;4.85;1.02;;;9.80;73.00;;;;;;5096014;28;20527;-72
2022/02/15 05:16:09;;;;;;;5.60;1.02;;;9.80;73.10;;;;;;5093838;28;20031;-72
2022/02/15 05:18:35;;;;;;;7.20;0.93;;;9.80;72.50;;;;;;5098595;28;20038;-72
2022/02/15 05:21:02;;;;;;;4.85;1.10;;;9.80;72.70;;;;;;5100272;28;20023;-72
2022/02/15 05:23:31;;;;;;;7.30;1.30;;;9.80;72.80;;;;;;5089618;28;20473;-72
2022/02/15 05:25:57;;;;;;;5.13;1.25;;;9.80;72.90;;;;;;5090845;28;20044;-72
2022/02/15 05:28:23;;;;;;;9.32;1.60;;;9.80;72.60;;;;;;5094856;28;20032;-72
2022/02/15 05:30:49;;;;;;;8.00;1.20;;;9.80;72.50;;;;;;5098823;28;20073;-72
2022/02/15 05:33:15;;;;;;;4.88;0.80;;;9.80;72.90;;;;;;5092871;28;20035;-73
2022/02/15 05:35:41;;;;;;;6.00;1.30;;;9.80;72.60;;;;;;5089812;28;20055;-73
2022/02/15 05:38:07;;;;;;;5.25;1.10;;;9.80;72.60;;;;;;5102648;28;20028;-72
2022/02/15 05:40:33;;;;;;;4.38;0.82;;;9.80;72.70;;;;;;5123895;27;20028;-72
2022/02/15 05:42:58;;;;;;;5.45;1.30;;;9.90;72.80;;;;;;5096665;28;20024;-71
2022/02/15 05:45:26;;;;;;;5.63;0.82;;;9.80;71.90;;;;;;5097766;28;20028;-72
2022/02/15 05:47:53;;;;;;;5.65;1.15;;;9.70;72.80;;;;;;5096934;28;20110;-72
2022/02/15 05:53:03;;;;;;;7.25;1.50;;;9.80;72.70;;;;;;5097452;28;20073;-71
2022/02/15 05:55:28;;;;;;;4.70;0.95;;;9.70;73.00;;;;;;5097599;28;20016;-72
2022/02/15 05:57:54;;;;;;;6.00;1.13;;;9.70;73.10;;;;;;5096157;28;20032;-72
2022/02/15 06:00:20;;;;;;;8.15;1.20;;;9.70;72.40;;;;;;5097730;28;20473;-72
2022/02/15 06:02:46;;;;;;;4.50;1.25;;;9.60;72.30;;;;;;5094165;28;20039;-71
2022/02/15 06:05:13;;;;;;;5.47;1.08;;;9.50;73.30;;;;;;5092589;28;20023;-72
2022/02/15 06:07:39;;;;;;;4.28;1.02;;;9.50;72.80;;;;;;5095532;28;20060;-72
2022/02/15 06:10:05;;;;;;;7.10;1.25;;;9.40;72.80;;;;;;5092962;28;20074;-71
2022/02/15 06:12:31;;;;;;;6.30;1.40;;;9.40;73.60;;;;;;5094405;28;20065;-72
2022/02/15 06:14:56;;;;;;;7.25;1.23;;;9.40;73.50;;;;;;5091650;28;20051;-72
2022/02/15 06:17:22;;;;;;;5.13;1.48;;;9.40;73.50;;;;;;5092660;28;20036;-72
2022/02/15 06:19:48;;;;;;;8.48;1.85;;;9.50;73.80;;;;;;5094257;28;20115;-72
2022/02/15 06:22:13;;;;;;;10.80;2.83;;;9.50;73.50;;;;;;5074477;28;20445;-72
2022/02/15 06:24:39;;;;;;;8.55;2.20;;;9.40;74.60;;;;;;5094076;28;20485;-72
2022/02/15 06:27:04;;;;;;;5.45;1.50;;;9.40;73.50;;;;;;5093251;28;20024;-71
2022/02/15 06:29:31;;;;;;;6.75;1.60;;;9.50;73.80;;;;;;5086425;28;20048;-71
2022/02/15 06:31:57;;;;;;;5.53;1.42;;;9.50;73.40;;;;;;5097616;28;20024;-71
2022/02/15 06:34:24;;;;;;;8.70;1.67;;;9.40;73.80;;;;;;5086536;28;20031;-71
2022/02/15 06:36:50;;;;;;;7.93;1.27;;;9.50;74.10;;;;;;5096475;28;20101;-70
2022/02/15 06:39:16;;;;;;;5.30;1.35;;;9.60;74.40;;;;;;5090807;28;20095;-70
2022/02/15 06:41:42;;;;;;;7.30;1.90;;;9.60;74.10;;;;;;5092650;28;20119;-71
2022/02/15 06:44:07;;;;;;;5.40;1.90;;;9.60;73.70;;;;;;5092311;28;20027;-71
2022/02/15 06:46:33;;;;;;;7.07;1.17;;;9.50;73.50;;;;;;5097818;28;20532;-71
2022/02/15 06:48:59;;;;;;;5.45;1.65;;;9.50;74.00;;;;;;5093246;28;20528;-71
2022/02/15 06:51:24;;;;;;;8.20;1.52;;;9.50;73.80;;;;;;5097095;28;20419;-71
2022/02/15 06:53:50;;;;;;;6.90;1.38;;;9.50;74.00;;;;;;5091285;28;20020;-72
2022/02/15 06:56:16;;;;;;;8.13;1.52;;;9.50;73.90;;;;;;5081656;28;20028;-71
2022/02/15 06:58:42;;;;;;;7.40;1.50;;;9.50;73.90;;;;;;5090467;28;20032;-71
2022/02/15 07:01:11;;;;;;;8.38;1.45;;;9.50;74.00;;;;;;5104782;28;20028;-71
2022/02/15 07:03:37;;;;;;;6.40;1.38;;;9.60;75.00;;;;;;5093926;28;20476;-71
2022/02/15 07:06:04;;;;;;;6.90;1.20;;;9.70;74.90;;;;;;5091194;28;20044;-72
2022/02/15 07:08:30;;;;;;;5.75;1.40;;;9.70;74.70;;;;;;5092144;28;20459;-71
2022/02/15 07:10:56;;;;;;;5.53;1.50;;;9.70;74.50;;;;;;5096721;28;20016;-72
2022/02/15 07:13:25;;;;;;;6.53;1.70;;;9.70;74.10;;;;;;5107278;28;20031;-71
2022/02/15 07:15:51;;;;;;;8.63;1.30;;;9.70;74.70;;;;;;5099498;28;20068;-71
2022/02/15 07:18:17;;;;;;;6.63;1.42;;;9.70;74.80;;;;;;5104448;28;20023;-72
2022/02/15 07:20:43;;;;;;;6.53;1.35;;;9.70;74.70;;;;;;5092107;28;20032;-72
2022/02/15 07:23:10;;;;;;;7.32;1.58;;;9.70;74.90;;;;;;5091025;28;20031;-72
2022/02/15 07:25:37;;;;;;;7.55;1.60;;;9.70;74.90;;;;;;5105138;28;20047;-72
2022/02/15 07:28:03;;;;;;;5.78;1.30;;;9.60;74.80;;;;;;5098332;28;20031;-72
2022/02/15 07:30:29;;;;;;;8.27;1.65;;;9.70;75.40;;;;;;5095538;28;20035;-71
2022/02/15 07:32:56;;;;;;;7.13;1.48;;;9.70;74.90;;;;;;5075191;28;20031;-71
2022/02/15 07:35:22;;;;;;;6.95;1.48;;;9.70;75.30;;;;;;5098703;28;20030;-70
2022/02/15 07:37:51;;;;;;;8.73;1.48;;;9.70;74.90;;;;;;5105740;28;20032;-71
2022/02/15 07:40:21;;;;;;;4.82;1.33;;;9.70;75.60;;;;;;5092493;28;20047;-70
2022/02/15 07:42:47;;;;;;;6.88;1.67;;;9.80;75.50;;;;;;5096960;28;20016;-70
2022/02/15 07:45:17;;;;;;;8.05;1.50;;;9.80;75.40;;;;;;5095586;28;20016;-70
2022/02/15 07:47:48;;;;;;;6.13;1.50;;;9.90;75.70;;;;;;5100115;28;20111;-70
2022/02/15 07:50:16;;;;;;;8.45;1.80;;;9.90;76.10;;;;;;5091841;28;20042;-70
2022/02/15 07:52:42;;;;;;;6.30;1.50;;;10.10;76.00;;;;;;5084327;28;20019;-70
2022/02/15 07:55:08;;;;;;;7.38;1.40;;;10.30;76.20;;;;;;5096321;28;20028;-70
2022/02/15 07:57:33;;;;;;;8.05;1.33;;;10.40;76.00;;;;;;5098040;28;20023;-70
2022/02/15 07:59:59;;;;;;;5.70;1.88;;;10.40;75.10;;;;;;5100004;28;20054;-70
2022/02/15 08:02:25;;;;;;;4.90;1.33;;;10.30;75.00;;;;;;5100271;28;20024;-71
2022/02/15 08:04:50;;;;;;;5.15;1.27;;;10.50;75.80;;;;;;5112011;28;20598;-71
2022/02/15 08:07:16;;;;;;;6.03;1.17;;;10.60;74.90;;;;;;5095673;28;20012;-70
2022/02/15 08:09:41;;;;;;;6.05;1.23;;;10.50;74.60;;;;;;5095318;28;20058;-71
2022/02/15 08:12:17;;;;;;;5.60;1.17;;;10.40;74.90;;;;;;5094857;28;20015;-71
2022/02/15 08:14:46;;;;;;;7.50;1.38;;;10.40;75.00;;;;;;5092663;28;20044;-71
2022/02/15 08:17:12;;;;;;;6.13;1.48;;;10.40;75.20;;;;;;5107388;28;20519;-71
2022/02/15 08:19:37;;;;;;;9.57;1.15;;;10.40;75.20;;;;;;5096507;28;20098;-70
2022/02/15 08:22:03;;;;;;;5.38;1.17;;;10.40;75.20;;;;;;5095153;28;20115;-70
2022/02/15 08:24:29;;;;;;;8.20;1.35;;;10.30;75.20;;;;;;5094710;28;20051;-70
2022/02/15 08:26:58;;;;;;;8.27;1.58;;;10.30;75.60;;;;;;5101982;28;20035;-70
2022/02/15 08:29:24;;;;;;;7.20;1.67;;;10.30;76.00;;;;;;5093704;28;20064;-70
2022/02/15 08:31:50;;;;;;;7.63;1.30;;;10.30;76.10;;;;;;5110739;28;20019;-70
2022/02/15 08:34:16;;;;;;;5.65;1.23;;;10.40;76.70;;;;;;5095119;28;20169;-70
2022/02/15 08:36:41;;;;;;;6.65;1.48;;;10.50;76.70;;;;;;5093384;28;20115;-68
2022/02/15 08:39:07;;;;;;;5.75;1.27;;;10.50;76.30;;;;;;5093700;28;20016;-68
2022/02/15 08:41:33;;;;;;;10.05;1.85;;;10.60;76.40;;;;;;5088214;28;20154;-69
2022/02/15 08:43:59;;;;;;;6.70;1.30;;;10.60;76.40;;;;;;5094942;28;20393;-69
2022/02/15 08:46:25;;;;;;;5.30;0.93;;;10.60;76.40;;;;;;5089667;28;20089;-72
2022/02/15 08:48:51;;;;;;;4.43;1.17;;;10.60;76.60;;;;;;5084946;28;20040;-70
2022/02/15 08:51:19;;;;;;;6.57;1.10;;;10.60;76.50;;;;;;5092548;28;20029;-71
2022/02/15 08:53:48;;;;;;;5.53;1.10;;;10.60;76.70;;;;;;5086366;28;20097;-72
2022/02/15 08:56:15;;;;;;;4.78;1.00;;;10.60;77.10;;;;;;5083469;28;20016;-72
2022/02/15 08:58:41;;;;;;;5.90;1.30;;;10.60;77.00;;;;;;5073261;28;20024;-70
2022/02/15 09:01:07;;;;;;;9.30;1.63;;;10.60;77.30;;;;;;5087811;28;20032;-68
2022/02/15 09:03:33;;;;;;;6.53;1.48;;;10.70;77.30;;;;;;5082993;28;20056;-67
2022/02/15 09:06:00;;;;;;;6.88;1.48;;;10.60;78.20;;;;;;5073413;28;20055;-68
2022/02/15 09:08:25;;;;;;;7.03;1.33;;;10.50;76.80;;;;;;5075923;28;20508;-68
2022/02/15 09:10:51;;;;;;;6.07;1.38;;;10.50;77.60;;;;;;5102813;28;20081;-67
2022/02/15 09:13:17;;;;;;;4.35;1.48;;;10.60;78.00;;;;;;5077332;28;20074;-67
2022/02/15 09:15:42;;;;;;;5.65;1.08;;;10.50;77.60;;;;;;5090076;28;20079;-68
2022/02/15 09:18:08;;;;;;;12.10;1.60;;;10.50;78.00;;;;;;5090601;28;20043;-79
2022/02/15 09:20:34;;;;;;;8.98;1.27;;;10.50;78.30;;;;;;5086549;28;20032;-69
2022/02/15 09:22:59;;;;;;;5.95;1.30;;;10.60;78.60;;;;;;5090134;28;20024;-69
2022/02/15 09:25:25;;;;;;;8.45;1.50;;;10.60;78.40;;;;;;5092225;28;20040;-70
2022/02/15 09:27:51;;;;;;;4.50;1.42;;;10.60;78.40;;;;;;5090439;28;20031;-70
2022/02/15 09:30:17;;;;;;;10.98;1.52;;;10.60;78.40;;;;;;5089997;28;20555;-70
2022/02/15 09:32:42;;;;;;;7.80;1.40;;;10.60;78.30;;;;;;5077524;28;20497;-70
2022/02/15 09:35:08;;;;;;;5.07;1.30;;;10.70;78.60;;;;;;5093121;28;20102;-69
2022/02/15 09:37:34;;;;;;;8.38;1.40;;;10.70;78.80;;;;;;5091831;28;20024;-68
2022/02/15 09:40:00;;;;;;;9.27;1.40;;;10.70;79.00;;;;;;5082177;28;20038;-69
2022/02/15 09:42:26;;;;;;;10.02;1.50;;;10.80;79.00;;;;;;5085138;28;20023;-69
2022/02/15 09:44:52;;;;;;;5.47;1.25;;;10.80;79.30;;;;;;5088409;28;20488;-68
2022/02/15 09:47:24;;;;;;;5.47;1.15;;;10.80;79.10;;;;;;5091094;28;20038;-70
2022/02/15 09:49:51;;;;;;;5.43;1.20;;;10.80;79.30;;;;;;5099299;28;20040;-68
2022/02/15 09:52:23;;;;;;;6.68;1.38;;;10.90;79.50;;;;;;5088781;28;20111;-70
2022/02/15 09:54:52;;;;;;;5.40;1.08;;;10.90;79.40;;;;;;5087701;28;20030;-69
2022/02/15 09:57:21;;;;;;;4.28;1.23;;;11.00;79.40;;;;;;5088369;28;20069;-68
2022/02/15 09:59:50;;;;;;;4.55;1.10;;;11.00;79.80;;;;;;5089373;28;20036;-68
2022/02/15 10:02:20;;;;;;;5.45;1.15;;;11.10;79.80;;;;;;5088400;28;20106;-69
2022/02/15 10:04:51;;;;;;;5.78;1.48;;;11.20;80.00;;;;;;5092732;28;20400;-70
2022/02/15 10:07:18;;;;;;;7.65;1.35;;;11.20;79.60;;;;;;5086931;28;20103;-69
2022/02/15 10:09:49;;;;;;;6.25;1.33;;;11.20;79.50;;;;;;5085419;28;20093;-69
2022/02/15 10:12:15;;;;;;;5.55;1.40;;;11.30;79.40;;;;;;5087591;28;20021;-68
2022/02/15 10:14:43;;;;;;;4.40;1.08;;;11.30;79.80;;;;;;5082489;28;20051;-69
2022/02/15 10:17:14;;;;;;;8.57;1.50;;;11.30;80.00;;;;;;5074471;28;20032;-69
2022/02/15 10:19:41;;;;;;;7.43;1.30;;;11.40;80.20;;;;;;5087738;28;20066;-73
2022/02/15 10:22:07;;;;;;;5.38;1.40;;;11.50;79.70;;;;;;5080225;28;20082;-67
2022/02/15 10:24:38;;;;;;;4.38;0.98;;;11.60;79.60;;;;;;5103418;28;20024;-66
2022/02/15 10:27:13;;;;;;;3.45;1.23;;;11.60;79.70;;;;;;5090066;28;20032;-67
2022/02/15 10:29:41;;;;;;;7.35;1.27;;;11.70;79.80;;;;;;5106604;28;20067;-67
2022/02/15 10:32:10;;;;;;;6.10;1.23;;;11.70;80.10;;;;;;5092323;28;20377;-66
2022/02/15 10:35:08;;;;;;;2.40;0.98;;;11.70;79.20;;;;;;5091106;28;20024;-66
2022/02/15 10:37:33;;;;;;;6.28;0.90;;;11.70;79.10;;;;;;5009684;28;20038;-67
2022/02/15 10:40:02;;;;;;;5.15;1.35;;;11.70;79.70;;;;;;5010947;28;20041;-66
2022/02/15 10:42:29;;;;;;;4.28;1.20;;;11.80;80.00;;;;;;5010823;28;20064;-66
2022/02/15 10:44:59;;;;;;;4.35;0.82;;;11.90;80.20;;;;;;5006583;28;20041;-67
2022/02/15 10:47:30;;;;;;;4.30;1.20;;;11.90;81.10;;;;;;5011766;28;20116;-67
2022/02/15 10:50:00;;;;;;;4.65;0.80;;;12.00;79.70;;;;;;5014085;28;20029;-67
2022/02/15 10:52:27;;;;;;;2.97;0.73;;;12.00;80.10;;;;;;5008690;28;20014;-66
2022/02/15 10:54:52;;;;;;;6.53;1.42;;;12.10;80.80;;;;;;5010597;28;20049;-66
2022/02/15 10:57:19;;;;;;;7.07;1.23;;;12.30;79.80;;;;;;5010767;28;20044;-66
2022/02/15 10:59:49;;;;;;;6.32;1.00;;;12.20;79.40;;;;;;5009682;28;20093;-67
2022/02/15 11:02:20;;;;;;;6.65;1.30;;;12.30;79.60;;;;;;5008211;28;20029;-66
2022/02/15 11:04:47;;;;;;;5.20;1.00;;;12.30;79.70;;;;;;5011366;28;20497;-66
2022/02/15 11:07:14;;;;;;;4.53;1.02;;;12.30;79.30;;;;;;5010527;28;20502;-66
2022/02/15 11:10:01;;;;;;;3.95;0.93;;;12.20;79.00;;;;;;4991136;28;20038;-66
2022/02/15 11:12:50;;;;;;;5.85;1.10;;;12.20;79.20;;;;;;5015835;28;20037;-66
2022/02/15 11:15:22;;;;;;;6.13;1.00;;;12.20;79.30;;;;;;5109472;27;20050;-67
2022/02/15 11:17:52;;;;;;;4.22;1.30;;;12.10;79.50;;;;;;5094080;28;20047;-66
2022/02/15 11:20:20;;;;;;;5.43;1.10;;;12.10;79.90;;;;;;5089688;28;20028;-67
2022/02/15 11:22:49;;;;;;;4.78;1.17;;;12.10;79.90;;;;;;5097926;28;20016;-68
2022/02/15 11:25:26;;;;;;;4.95;0.93;;;12.20;80.30;;;;;;5094323;28;20028;-66
2022/02/15 11:27:53;;;;;;;2.88;0.90;;;12.10;79.70;;;;;;5098826;28;20024;-67
2022/02/15 11:30:18;;;;;;;4.50;1.00;;;12.10;80.10;;;;;;5099570;28;20039;-68
2022/02/15 11:32:48;;;;;;;3.72;1.02;;;12.10;80.60;;;;;;5093989;28;20025;-68
2022/02/15 11:35:15;;;;;;;5.97;1.10;;;12.10;80.30;;;;;;5092716;28;20028;-71
2022/02/15 11:37:41;;;;;;;6.53;0.90;;;12.20;80.30;;;;;;5088021;28;20016;-70
2022/02/15 11:40:09;;;;;;;7.25;1.15;;;12.10;79.90;;;;;;5099727;28;20077;-66
2022/02/15 11:42:47;;;;;;;7.45;1.38;;;12.10;79.90;;;;;;5089277;28;20047;-67
2022/02/15 11:45:18;;;;;;;7.72;1.25;;;12.10;80.20;;;;;;5083824;28;20028;-66
2022/02/15 11:47:46;;;;;;;4.10;1.20;;;12.10;80.00;;;;;;5086664;28;20032;-73
2022/02/15 11:50:14;;;;;;;7.93;1.10;;;12.10;80.00;;;;;;5071718;28;20442;-69
2022/02/15 11:52:40;;;;;;;6.63;1.23;;;12.10;80.10;;;;;;5107940;28;20508;-69
2022/02/15 11:55:09;;;;;;;5.72;0.90;;;12.10;80.30;;;;;;5096443;28;20039;-68
2022/02/15 11:57:35;;;;;;;6.20;1.10;;;12.10;79.90;;;;;;5094925;28;20019;-68
2022/02/15 12:00:02;;;;;;;6.07;0.95;;;12.10;80.10;;;;;;5087246;28;20667;-68
2022/02/15 12:02:28;;;;;;;3.10;1.27;;;12.10;80.40;;;;;;5084726;28;20493;-68
2022/02/15 12:04:58;;;;;;;5.50;1.00;;;12.10;80.30;;;;;;5081152;28;20511;-68
2022/02/15 12:07:27;;;;;;;5.50;0.90;;;12.20;80.20;;;;;;5118766;27;20104;-67
2022/02/15 12:09:54;;;;;;;6.35;1.00;;;12.10;79.80;;;;;;5083670;28;20042;-67
2022/02/15 12:12:20;;;;;;;5.93;1.10;;;12.10;80.10;;;;;;5096389;28;20051;-68
2022/02/15 12:14:54;;;;;;;7.05;1.08;;;12.10;79.80;;;;;;5093076;28;20083;-68
2022/02/15 12:17:25;;;;;;;8.10;1.00;;;12.10;79.80;;;;;;5089363;28;20588;-68
2022/02/15 12:19:58;;;;;;;8.27;1.40;;;12.10;79.70;;;;;;5100459;28;20057;-69
2022/02/15 12:22:26;;;;;;;3.22;1.00;;;12.10;79.80;;;;;;5094092;28;20050;-68
2022/02/15 12:24:56;;;;;;;4.85;1.10;;;12.20;80.00;;;;;;5093006;28;20039;-68
2022/02/15 12:27:24;;;;;;;7.43;1.20;;;12.30;80.50;;;;;;5093441;28;20110;-68
2022/02/15 12:29:56;;;;;;;6.88;1.10;;;12.40;80.80;;;;;;5082593;28;20043;-67
2022/02/15 12:32:28;;;;;;;6.47;1.17;;;12.70;80.20;;;;;;5090566;28;20028;-68
2022/02/15 12:34:55;;;;;;;6.22;1.05;;;12.90;80.10;;;;;;5109306;27;20024;-74
2022/02/15 12:37:26;;;;;;;3.70;1.23;;;13.00;79.40;;;;;;5102967;28;20069;-76
2022/02/15 12:40:00;;;;;;;6.47;1.02;;;13.10;79.40;;;;;;5098428;28;20210;-71
2022/02/15 12:42:29;;;;;;;4.78;0.98;;;13.10;79.00;;;;;;5092795;28;20019;-67
2022/02/15 12:45:01;;;;;;;6.72;1.15;;;13.20;78.60;;;;;;5095808;28;20027;-69
2022/02/15 12:47:28;;;;;;;5.28;1.20;;;13.10;78.00;;;;;;5084729;28;20396;-69
2022/02/15 12:49:56;;;;;;;5.05;0.93;;;13.20;78.20;;;;;;5093709;28;20095;-69
2022/02/15 12:52:24;;;;;;;5.60;0.98;;;13.20;78.00;;;;;;5095122;28;20052;-70
2022/02/15 12:55:08;;;;;;;3.90;0.75;;;13.10;77.20;;;;;;5093867;28;20032;-72